Time;durP1;ratioP1;P1;durP2;ratioP2;P2;SDS_P1;SDS_P2;PMS_P1;PMS_P2;Temp;Humidity;BMP_temperature;BMP_pressure;BME280_temperature;BME280_humidity;BME280_pressure;Samples;Min_cycle;Max_cycle;Signal;HPM_P1;HPM_P2
2022/03/21 00:01:34;;;;;;;16.13;12.00;;;;;;;;;;5086134;28;20231;-80
2022/03/21 00:04:00;;;;;;;14.17;10.87;;;;;;;;;;5068058;28;20189;-80
2022/03/21 00:06:26;;;;;;;19.00;14.40;;;;;;;;;;5066926;28;20193;-80
2022/03/21 00:08:53;;;;;;;14.30;11.73;;;;;;;;;;5049013;28;20217;-80
2022/03/21 00:11:20;;;;;;;16.00;12.00;;;;;;;;;;5061636;28;20216;-80
2022/03/21 00:13:49;;;;;;;15.20;11.10;;;;;;;;;;5080556;28;20189;-80
2022/03/21 00:16:15;;;;;;;16.30;11.70;;;;;;;;;;5066235;28;20657;-80
2022/03/21 00:18:42;;;;;;;15.47;11.63;;;;;;;;;;5066145;28;20188;-80
2022/03/21 00:21:08;;;;;;;17.73;13.10;;;;;;;;;;5064330;28;20185;-79
2022/03/21 00:23:35;;;;;;;16.77;11.97;;;;;;;;;;5065369;28;20651;-82
2022/03/21 00:26:01;;;;;;;16.63;11.57;;;;;;;;;;5059767;28;20216;-82
2022/03/21 00:28:28;;;;;;;15.60;11.67;;;;;;;;;;5062896;28;20554;-81
2022/03/21 00:30:55;;;;;;;15.70;11.83;;;;;;;;;;5065265;28;20190;-82
2022/03/21 00:33:22;;;;;;;17.63;13.27;;;;;;;;;;5064752;28;20583;-82
2022/03/21 00:35:50;;;;;;;19.37;14.00;;;;;;;;;;5029286;28;20245;-82
2022/03/21 00:38:17;;;;;;;14.43;11.93;;;;;;;;;;5071341;28;20231;-82
2022/03/21 00:40:45;;;;;;;15.70;12.27;;;;;;;;;;5068912;28;20250;-82
2022/03/21 00:43:13;;;;;;;16.03;12.93;;;;;;;;;;5068335;28;20255;-82
2022/03/21 00:45:39;;;;;;;16.53;12.90;;;;;;;;;;5051099;28;20208;-82
2022/03/21 00:48:05;;;;;;;15.77;12.00;;;;;;;;;;5067315;28;20220;-81
2022/03/21 00:50:32;;;;;;;20.67;15.13;;;;;;;;;;5067540;28;20680;-82
2022/03/21 00:52:58;;;;;;;18.53;13.40;;;;;;;;;;5050794;28;20209;-81
2022/03/21 00:55:31;;;;;;;16.83;12.90;;;;;;;;;;5079480;28;20215;-82
2022/03/21 00:57:58;;;;;;;15.97;12.10;;;;;;;;;;5053334;28;20204;-82
2022/03/21 01:00:26;;;;;;;17.60;11.73;;;;;;;;;;5042081;28;20234;-82
2022/03/21 01:02:53;;;;;;;17.90;12.83;;;;;;;;;;5049005;28;20205;-82
2022/03/21 01:05:20;;;;;;;17.43;13.13;;;;;;;;;;5058054;28;20181;-82
2022/03/21 01:07:46;;;;;;;16.77;12.73;;;;;;;;;;5064534;28;20383;-81
2022/03/21 01:10:14;;;;;;;19.47;12.87;;;;;;;;;;5066034;28;20262;-82
2022/03/21 01:12:41;;;;;;;13.73;10.40;;;;;;;;;;5064942;28;20236;-81
2022/03/21 01:15:08;;;;;;;16.17;12.00;;;;;;;;;;5065074;28;20189;-82
2022/03/21 01:17:35;;;;;;;15.20;11.23;;;;;;;;;;5064997;28;20276;-82
2022/03/21 01:20:02;;;;;;;17.70;12.50;;;;;;;;;;5064093;28;20191;-81
2022/03/21 01:22:28;;;;;;;17.17;13.83;;;;;;;;;;5066405;28;20228;-81
2022/03/21 01:24:55;;;;;;;14.70;11.83;;;;;;;;;;5064694;28;20259;-81
2022/03/21 01:27:21;;;;;;;17.13;12.47;;;;;;;;;;5066899;28;20207;-82
2022/03/21 01:29:48;;;;;;;16.63;12.10;;;;;;;;;;5065350;28;20213;-82
2022/03/21 01:32:14;;;;;;;16.13;12.20;;;;;;;;;;5067891;28;20229;-82
2022/03/21 01:34:40;;;;;;;16.13;11.70;;;;;;;;;;5068325;28;20185;-82
2022/03/21 01:37:06;;;;;;;15.50;11.97;;;;;;;;;;5053512;28;20197;-81
2022/03/21 01:39:33;;;;;;;18.33;13.10;;;;;;;;;;5064636;28;20198;-81
2022/03/21 01:41:59;;;;;;;14.60;11.17;;;;;;;;;;5062807;28;20227;-81
2022/03/21 01:44:25;;;;;;;18.87;12.87;;;;;;;;;;5061032;28;20265;-82
2022/03/21 01:46:51;;;;;;;18.90;14.00;;;;;;;;;;5066091;28;20296;-81
2022/03/21 01:49:17;;;;;;;17.47;12.40;;;;;;;;;;5076094;28;20224;-82
2022/03/21 01:51:44;;;;;;;14.80;11.67;;;;;;;;;;5074141;28;20239;-82
2022/03/21 01:56:57;;;;;;;15.00;10.90;;;;;;;;;;5066298;28;20615;-82
2022/03/21 01:59:24;;;;;;;14.30;10.37;;;;;;;;;;5052447;28;20195;-81
2022/03/21 02:01:51;;;;;;;13.87;11.13;;;;;;;;;;5053343;28;20224;-82
2022/03/21 02:04:17;;;;;;;16.27;11.57;;;;;;;;;;5064113;28;20196;-81
2022/03/21 02:06:43;;;;;;;15.10;11.07;;;;;;;;;;5073560;28;20193;-81
2022/03/21 02:09:10;;;;;;;14.10;10.77;;;;;;;;;;5075777;28;20287;-81
2022/03/21 02:11:37;;;;;;;14.50;10.33;;;;;;;;;;5074496;28;20241;-81
2022/03/21 02:14:04;;;;;;;15.37;11.43;;;;;;;;;;5074076;28;20238;-81
2022/03/21 02:16:31;;;;;;;14.80;11.33;;;;;;;;;;5076188;28;20661;-81
2022/03/21 02:19:01;;;;;;;16.07;10.97;;;;;;;;;;5074469;28;20314;-82
2022/03/21 02:21:31;;;;;;;14.37;10.47;;;;;;;;;;5072853;28;20654;-81
2022/03/21 02:24:02;;;;;;;16.23;11.70;;;;;;;;;;5084468;28;20185;-81
2022/03/21 02:26:30;;;;;;;16.43;12.10;;;;;;;;;;5068221;28;20177;-81
2022/03/21 02:28:57;;;;;;;16.80;12.13;;;;;;;;;;5075001;28;20231;-81
2022/03/21 02:31:24;;;;;;;14.70;10.73;;;;;;;;;;5072787;28;20230;-82
2022/03/21 02:33:50;;;;;;;13.33;10.27;;;;;;;;;;5075177;28;20181;-82
2022/03/21 02:36:17;;;;;;;13.83;10.27;;;;;;;;;;5074492;28;20187;-81
2022/03/21 02:38:45;;;;;;;13.63;10.40;;;;;;;;;;5057112;28;20243;-82
2022/03/21 02:41:15;;;;;;;15.83;11.33;;;;;;;;;;5078697;28;20579;-81
2022/03/21 02:43:52;;;;;;;13.70;10.53;;;;;;;;;;5034580;28;20476;-82
2022/03/21 02:46:18;;;;;;;13.40;10.30;;;;;;;;;;5068831;28;20197;-82
2022/03/21 02:48:47;;;;;;;13.00;10.20;;;;;;;;;;5059951;28;20255;-82
2022/03/21 02:51:14;;;;;;;16.17;10.67;;;;;;;;;;5072102;28;20272;-81
2022/03/21 02:53:41;;;;;;;14.67;10.80;;;;;;;;;;5070028;28;20185;-81
2022/03/21 02:56:07;;;;;;;14.23;10.87;;;;;;;;;;5070448;28;20177;-81
2022/03/21 02:58:33;;;;;;;14.23;10.67;;;;;;;;;;5067361;28;20629;-81
2022/03/21 03:01:07;;;;;;;14.67;10.50;;;;;;;;;;5064104;28;20315;-82
2022/03/21 03:03:33;;;;;;;14.13;10.57;;;;;;;;;;5069180;28;20192;-81
2022/03/21 03:05:59;;;;;;;15.13;11.03;;;;;;;;;;5069765;28;20181;-82
2022/03/21 03:08:26;;;;;;;13.30;9.83;;;;;;;;;;5071732;28;20181;-81
2022/03/21 03:10:52;;;;;;;13.87;10.77;;;;;;;;;;5068913;28;20181;-82
2022/03/21 03:13:18;;;;;;;13.53;10.43;;;;;;;;;;5070310;28;20205;-82
2022/03/21 03:15:47;;;;;;;14.67;10.33;;;;;;;;;;5067200;28;20177;-82
2022/03/21 03:18:13;;;;;;;12.90;9.80;;;;;;;;;;5036756;28;20271;-81
2022/03/21 03:20:45;;;;;;;15.77;11.10;;;;;;;;;;5066719;28;20189;-82
2022/03/21 03:23:12;;;;;;;15.43;10.47;;;;;;;;;;5069448;28;20243;-81
2022/03/21 03:25:38;;;;;;;14.47;10.83;;;;;;;;;;5071305;28;20196;-82
2022/03/21 03:28:04;;;;;;;14.23;10.33;;;;;;;;;;5053300;28;20656;-81
2022/03/21 03:30:30;;;;;;;15.33;10.47;;;;;;;;;;5070320;28;20208;-81
2022/03/21 03:32:57;;;;;;;13.33;10.47;;;;;;;;;;5051713;28;20205;-81
2022/03/21 03:35:23;;;;;;;16.73;10.33;;;;;;;;;;5068316;28;20215;-81
2022/03/21 03:37:49;;;;;;;13.63;10.20;;;;;;;;;;5070057;28;20251;-81
2022/03/21 03:40:15;;;;;;;13.63;10.03;;;;;;;;;;5069305;28;20185;-81
2022/03/21 03:42:41;;;;;;;12.37;9.60;;;;;;;;;;5070664;28;20205;-82
2022/03/21 03:45:08;;;;;;;13.10;10.40;;;;;;;;;;5068724;28;20201;-81
2022/03/21 03:47:34;;;;;;;13.10;9.57;;;;;;;;;;5069445;28;20201;-82
2022/03/21 03:50:00;;;;;;;12.97;9.17;;;;;;;;;;5063474;28;20206;-82
2022/03/21 03:52:26;;;;;;;14.17;9.97;;;;;;;;;;5066780;28;20224;-82
2022/03/21 03:54:52;;;;;;;13.80;9.93;;;;;;;;;;5070686;28;20550;-81
2022/03/21 03:57:20;;;;;;;14.97;10.60;;;;;;;;;;5071358;28;20706;-81
2022/03/21 03:59:46;;;;;;;15.50;10.93;;;;;;;;;;5059305;28;20193;-81
2022/03/21 04:02:12;;;;;;;13.07;9.90;;;;;;;;;;5052270;28;20208;-81
2022/03/21 04:04:38;;;;;;;14.50;9.87;;;;;;;;;;5069059;28;20221;-81
2022/03/21 04:07:04;;;;;;;14.80;10.60;;;;;;;;;;5068551;28;20288;-81
2022/03/21 04:09:30;;;;;;;14.17;10.47;;;;;;;;;;5070331;28;20637;-81
2022/03/21 04:11:57;;;;;;;13.70;10.53;;;;;;;;;;5066441;28;20548;-80
2022/03/21 04:14:23;;;;;;;15.13;10.43;;;;;;;;;;5068483;28;20177;-80
2022/03/21 04:16:50;;;;;;;14.57;10.57;;;;;;;;;;5071153;28;20184;-80
2022/03/21 04:19:16;;;;;;;10.77;8.97;;;;;;;;;;5069450;28;20200;-80
2022/03/21 04:21:42;;;;;;;13.93;9.97;;;;;;;;;;5065204;28;20288;-80
2022/03/21 04:24:08;;;;;;;14.40;10.20;;;;;;;;;;5067462;28;20197;-80
2022/03/21 04:26:34;;;;;;;16.00;10.30;;;;;;;;;;5064649;28;20922;-80
2022/03/21 04:29:04;;;;;;;13.03;9.87;;;;;;;;;;5067260;28;20236;-81
2022/03/21 04:31:31;;;;;;;13.17;10.13;;;;;;;;;;5048196;28;20403;-80
2022/03/21 04:33:58;;;;;;;13.67;10.03;;;;;;;;;;5064266;28;20185;-80
2022/03/21 04:36:24;;;;;;;13.03;10.10;;;;;;;;;;5064558;28;20186;-80
2022/03/21 04:38:50;;;;;;;13.40;9.90;;;;;;;;;;5062147;28;20340;-80
2022/03/21 04:41:17;;;;;;;12.60;9.43;;;;;;;;;;5065785;28;20193;-80
2022/03/21 04:43:43;;;;;;;13.63;9.27;;;;;;;;;;5050152;28;20657;-80
2022/03/21 04:46:09;;;;;;;12.03;9.17;;;;;;;;;;5066395;28;20193;-80
2022/03/21 04:48:35;;;;;;;13.03;8.93;;;;;;;;;;5065923;28;20181;-80
2022/03/21 04:51:01;;;;;;;14.23;9.60;;;;;;;;;;5065504;28;20251;-81
2022/03/21 04:53:28;;;;;;;12.43;9.13;;;;;;;;;;5065481;28;20185;-80
2022/03/21 04:55:54;;;;;;;11.63;8.77;;;;;;;;;;5068169;28;20186;-80
2022/03/21 04:58:20;;;;;;;13.07;10.07;;;;;;;;;;5067612;28;20235;-80
2022/03/21 05:00:46;;;;;;;11.87;9.13;;;;;;;;;;5068312;28;20201;-80
2022/03/21 05:03:13;;;;;;;13.20;9.23;;;;;;;;;;5066631;28;20275;-82
2022/03/21 05:05:39;;;;;;;12.70;9.13;;;;;;;;;;5070165;28;20283;-81
2022/03/21 05:08:05;;;;;;;14.37;9.67;;;;;;;;;;5051020;28;20197;-80
2022/03/21 05:10:32;;;;;;;14.47;9.47;;;;;;;;;;5051766;28;21034;-80
2022/03/21 05:12:58;;;;;;;13.83;10.30;;;;;;;;;;5068423;28;20204;-80
2022/03/21 05:15:27;;;;;;;13.67;10.73;;;;;;;;;;5068052;28;20815;-80
2022/03/21 05:17:54;;;;;;;15.57;11.87;;;;;;;;;;5070555;28;20834;-80
2022/03/21 05:20:20;;;;;;;15.40;11.27;;;;;;;;;;5067290;28;20219;-81
2022/03/21 05:30:57;;;;;;;15.13;11.43;;;;;;;;;;5066152;28;20894;-81
2022/03/21 05:31:09;;;;;;;15.53;11.33;;;;;;;;;;5056421;28;20201;-80
2022/03/21 05:36:26;;;;;;;14.83;11.43;;;;;;;;;;5058591;28;20196;-80
2022/03/21 05:38:53;;;;;;;18.37;11.17;;;;;;;;;;5049240;28;20244;-80
2022/03/21 05:41:19;;;;;;;16.50;11.43;;;;;;;;;;5062398;28;22447;-81
2022/03/21 05:43:45;;;;;;;17.33;11.80;;;;;;;;;;5048807;28;20181;-80
2022/03/21 05:46:11;;;;;;;14.40;11.30;;;;;;;;;;5067254;28;20185;-80
2022/03/21 05:51:23;;;;;;;15.10;11.07;;;;;;;;;;5056990;28;20211;-80
2022/03/21 05:53:50;;;;;;;16.37;11.47;;;;;;;;;;5067546;28;20264;-80
2022/03/21 05:56:16;;;;;;;17.37;10.93;;;;;;;;;;5032350;28;20542;-80
2022/03/21 05:58:42;;;;;;;16.97;10.87;;;;;;;;;;5065369;28;20189;-80
2022/03/21 06:01:11;;;;;;;16.30;11.73;;;;;;;;;;5066749;28;20253;-80
2022/03/21 06:03:38;;;;;;;17.87;12.00;;;;;;;;;;5023495;28;20190;-80
2022/03/21 06:06:04;;;;;;;17.53;12.27;;;;;;;;;;5052792;28;20625;-80
2022/03/21 06:08:30;;;;;;;17.77;12.43;;;;;;;;;;5076571;28;20237;-80
2022/03/21 06:11:08;;;;;;;18.93;12.70;;;;;;;;;;5088797;28;20177;-80
2022/03/21 06:13:39;;;;;;;17.37;13.00;;;;;;;;;;5074798;28;20201;-81
2022/03/21 06:16:06;;;;;;;19.00;13.40;;;;;;;;;;5070584;28;20177;-81
2022/03/21 06:18:35;;;;;;;18.00;12.70;;;;;;;;;;5070903;28;20186;-80
2022/03/21 06:21:02;;;;;;;17.87;12.43;;;;;;;;;;5049210;28;20662;-83
2022/03/21 06:23:28;;;;;;;19.50;13.97;;;;;;;;;;5072691;28;20205;-80
2022/03/21 06:25:55;;;;;;;16.47;12.30;;;;;;;;;;5066491;28;20869;-82
2022/03/21 06:28:22;;;;;;;18.03;12.93;;;;;;;;;;5074237;28;20182;-77
2022/03/21 06:30:50;;;;;;;17.33;12.67;;;;;;;;;;5068191;28;20204;-79
2022/03/21 06:33:17;;;;;;;19.03;13.10;;;;;;;;;;5067351;28;20213;-80
2022/03/21 06:35:44;;;;;;;18.03;12.93;;;;;;;;;;5069253;28;20186;-79
2022/03/21 06:38:10;;;;;;;20.13;13.07;;;;;;;;;;5065750;28;21796;-76
2022/03/21 06:40:37;;;;;;;18.20;12.93;;;;;;;;;;5062322;28;20667;-76
2022/03/21 06:43:03;;;;;;;18.57;13.23;;;;;;;;;;5068067;28;20216;-77
2022/03/21 06:45:30;;;;;;;18.10;13.00;;;;;;;;;;5072471;28;20634;-79
2022/03/21 06:47:57;;;;;;;20.33;14.27;;;;;;;;;;5083462;28;20687;-81
2022/03/21 06:50:23;;;;;;;19.57;13.83;;;;;;;;;;5062918;28;20276;-81
2022/03/21 06:52:49;;;;;;;18.73;13.70;;;;;;;;;;5062202;28;20213;-80
2022/03/21 06:55:25;;;;;;;19.90;13.77;;;;;;;;;;5077225;28;20299;-81
2022/03/21 06:57:51;;;;;;;19.07;13.83;;;;;;;;;;5077017;28;20366;-81
2022/03/21 07:00:17;;;;;;;15.73;12.03;;;;;;;;;;5070890;28;20572;-80
2022/03/21 07:02:44;;;;;;;18.83;13.23;;;;;;;;;;5074297;28;20205;-81
2022/03/21 07:05:11;;;;;;;17.43;12.30;;;;;;;;;;5072236;28;20641;-80
2022/03/21 07:07:37;;;;;;;16.83;12.97;;;;;;;;;;5071051;28;20181;-81
2022/03/21 07:10:05;;;;;;;16.70;12.43;;;;;;;;;;5054199;28;20220;-81
2022/03/21 07:12:32;;;;;;;16.87;12.50;;;;;;;;;;5068441;28;20747;-80
2022/03/21 07:14:58;;;;;;;17.20;12.03;;;;;;;;;;5043049;28;20211;-78
2022/03/21 07:17:24;;;;;;;15.63;11.77;;;;;;;;;;5065762;28;20189;-77
2022/03/21 07:19:51;;;;;;;16.23;10.60;;;;;;;;;;5070622;28;20187;-78
2022/03/21 07:22:17;;;;;;;18.13;11.43;;;;;;;;;;5068877;28;20304;-77
2022/03/21 07:24:44;;;;;;;16.57;11.60;;;;;;;;;;5069024;28;20228;-77
2022/03/21 07:27:14;;;;;;;15.70;11.03;;;;;;;;;;5068272;28;20189;-77
2022/03/21 07:29:40;;;;;;;14.57;10.40;;;;;;;;;;5064079;28;20205;-77
2022/03/21 07:32:07;;;;;;;14.00;10.40;;;;;;;;;;5064944;28;20201;-78
2022/03/21 07:34:33;;;;;;;16.50;12.27;;;;;;;;;;5068642;28;20235;-77
2022/03/21 07:36:59;;;;;;;16.37;12.10;;;;;;;;;;5066654;28;20208;-78
2022/03/21 07:39:26;;;;;;;14.97;11.60;;;;;;;;;;5065732;28;20180;-78
2022/03/21 07:41:59;;;;;;;16.03;11.43;;;;;;;;;;5068109;28;20618;-78
2022/03/21 07:47:17;;;;;;;15.10;10.80;;;;;;;;;;5066322;28;20189;-78
2022/03/21 07:49:46;;;;;;;18.07;10.97;;;;;;;;;;5057202;28;20296;-79
2022/03/21 07:52:18;;;;;;;14.80;11.57;;;;;;;;;;5068465;28;20212;-78
2022/03/21 07:54:53;;;;;;;15.83;11.73;;;;;;;;;;5065683;28;20186;-79
2022/03/21 07:57:20;;;;;;;14.23;10.70;;;;;;;;;;5066343;28;20189;-79
2022/03/21 07:59:46;;;;;;;15.00;11.00;;;;;;;;;;5065402;28;20268;-79
2022/03/21 08:02:13;;;;;;;18.43;12.43;;;;;;;;;;5069704;28;20955;-78
2022/03/21 08:04:39;;;;;;;15.17;11.13;;;;;;;;;;5037832;28;20193;-79
2022/03/21 08:07:05;;;;;;;16.70;11.70;;;;;;;;;;5061179;28;20201;-78
2022/03/21 08:09:31;;;;;;;14.20;10.90;;;;;;;;;;5069583;28;20244;-79
2022/03/21 08:11:57;;;;;;;15.40;11.47;;;;;;;;;;5068697;28;20213;-78
2022/03/21 08:14:24;;;;;;;14.57;10.17;;;;;;;;;;5071696;28;20196;-78
2022/03/21 08:16:51;;;;;;;15.70;10.97;;;;;;;;;;5073915;28;20181;-78
2022/03/21 08:19:17;;;;;;;15.63;11.07;;;;;;;;;;5069919;28;20263;-78
2022/03/21 08:21:44;;;;;;;15.07;10.97;;;;;;;;;;5069157;28;20208;-78
2022/03/21 08:24:12;;;;;;;12.93;10.00;;;;;;;;;;5071655;28;20193;-78
2022/03/21 08:26:39;;;;;;;14.13;10.13;;;;;;;;;;5070341;28;20657;-78
2022/03/21 08:29:06;;;;;;;16.13;10.73;;;;;;;;;;5060964;28;20218;-78
2022/03/21 08:31:32;;;;;;;14.80;10.30;;;;;;;;;;5069274;28;20205;-78
2022/03/21 08:33:58;;;;;;;14.47;10.27;;;;;;;;;;5071482;28;20193;-78
2022/03/21 08:36:24;;;;;;;14.10;10.53;;;;;;;;;;5068518;28;20191;-79
2022/03/21 08:38:50;;;;;;;13.43;10.07;;;;;;;;;;5071501;28;20235;-80
2022/03/21 08:41:16;;;;;;;14.23;11.13;;;;;;;;;;5071546;28;20529;-79
2022/03/21 08:43:43;;;;;;;16.97;11.13;;;;;;;;;;5057028;28;20181;-79
2022/03/21 08:46:09;;;;;;;14.57;10.60;;;;;;;;;;5074692;28;20232;-78
2022/03/21 08:51:20;;;;;;;13.57;10.30;;;;;;;;;;5064762;28;20189;-79
2022/03/21 08:53:46;;;;;;;15.37;10.30;;;;;;;;;;5054970;28;20243;-79
2022/03/21 08:56:12;;;;;;;14.30;10.97;;;;;;;;;;5071980;28;20602;-79
2022/03/21 08:58:39;;;;;;;13.00;10.33;;;;;;;;;;5070504;28;20188;-79
2022/03/21 09:01:05;;;;;;;15.90;11.50;;;;;;;;;;5072231;28;20189;-78
2022/03/21 09:03:31;;;;;;;16.50;11.57;;;;;;;;;;5058769;28;20194;-79
2022/03/21 09:05:58;;;;;;;14.47;11.43;;;;;;;;;;5066939;28;20184;-79
2022/03/21 09:08:24;;;;;;;22.70;18.00;;;;;;;;;;5072865;28;20189;-79
2022/03/21 09:10:52;;;;;;;18.00;13.30;;;;;;;;;;5066530;28;20208;-78
2022/03/21 09:13:18;;;;;;;17.80;11.77;;;;;;;;;;5067231;28;20209;-79
2022/03/21 09:15:45;;;;;;;15.30;11.20;;;;;;;;;;5067489;28;20241;-79
2022/03/21 09:18:11;;;;;;;13.80;10.73;;;;;;;;;;5056830;28;20719;-79
2022/03/21 09:20:37;;;;;;;16.63;12.23;;;;;;;;;;5057488;28;20192;-79
2022/03/21 09:23:04;;;;;;;14.83;11.30;;;;;;;;;;5066040;28;20213;-79
2022/03/21 09:25:30;;;;;;;15.83;12.07;;;;;;;;;;5048179;28;20303;-79
2022/03/21 09:27:56;;;;;;;17.50;12.73;;;;;;;;;;5061942;28;20260;-79
2022/03/21 09:30:23;;;;;;;13.83;11.33;;;;;;;;;;5049613;28;20225;-79
2022/03/21 09:32:50;;;;;;;14.73;11.30;;;;;;;;;;5068026;28;20766;-79
2022/03/21 09:35:16;;;;;;;14.90;12.13;;;;;;;;;;5069609;28;20189;-81
2022/03/21 09:37:42;;;;;;;15.50;12.20;;;;;;;;;;5075061;28;20185;-79
2022/03/21 09:40:09;;;;;;;16.33;12.50;;;;;;;;;;5068462;28;20196;-79
2022/03/21 09:42:36;;;;;;;17.80;12.80;;;;;;;;;;5067712;28;20220;-79
2022/03/21 09:45:03;;;;;;;16.47;12.10;;;;;;;;;;5060526;28;20213;-79
2022/03/21 09:50:16;;;;;;;16.00;11.70;;;;;;;;;;5063730;28;20218;-79
2022/03/21 09:52:42;;;;;;;17.57;12.43;;;;;;;;;;5078874;28;20220;-79
2022/03/21 09:55:09;;;;;;;16.13;12.70;;;;;;;;;;5052922;28;20189;-79
2022/03/21 09:57:35;;;;;;;16.20;12.70;;;;;;;;;;5068987;28;20193;-79
2022/03/21 10:00:04;;;;;;;16.00;12.17;;;;;;;;;;5067165;28;20736;-79
2022/03/21 10:02:38;;;;;;;17.20;13.13;;;;;;;;;;5065039;28;20227;-79
2022/03/21 10:05:05;;;;;;;15.57;12.50;;;;;;;;;;5066843;28;20215;-79
2022/03/21 10:07:31;;;;;;;16.27;12.57;;;;;;;;;;5071522;28;20614;-79
2022/03/21 10:10:08;;;;;;;15.37;11.87;;;;;;;;;;5076000;28;20299;-79
2022/03/21 10:12:34;;;;;;;16.97;12.17;;;;;;;;;;5069517;28;20297;-79
2022/03/21 10:15:00;;;;;;;16.93;12.87;;;;;;;;;;5062782;28;20201;-79
2022/03/21 10:17:28;;;;;;;17.50;13.23;;;;;;;;;;5060537;28;20211;-79
2022/03/21 10:19:55;;;;;;;14.93;11.87;;;;;;;;;;5060671;28;20190;-79
2022/03/21 10:22:33;;;;;;;15.97;12.03;;;;;;;;;;5077696;28;20751;-79
2022/03/21 10:25:04;;;;;;;16.80;12.27;;;;;;;;;;5067269;28;20731;-77
2022/03/21 10:27:40;;;;;;;16.73;13.23;;;;;;;;;;5076082;28;20191;-79
2022/03/21 10:30:07;;;;;;;17.03;13.47;;;;;;;;;;5068430;28;21224;-77
2022/03/21 10:32:44;;;;;;;16.20;12.73;;;;;;;;;;5070502;28;20212;-78
2022/03/21 10:35:14;;;;;;;16.40;12.83;;;;;;;;;;5071502;28;20239;-78
2022/03/21 10:37:46;;;;;;;19.47;13.63;;;;;;;;;;5072331;28;20186;-78
2022/03/21 10:40:23;;;;;;;17.83;12.87;;;;;;;;;;5086983;28;20192;-78
2022/03/21 10:42:50;;;;;;;17.13;13.13;;;;;;;;;;5076225;28;20213;-78
2022/03/21 10:45:16;;;;;;;19.03;12.60;;;;;;;;;;5054027;28;20197;-78
2022/03/21 10:47:49;;;;;;;19.63;13.27;;;;;;;;;;5077763;28;20212;-78
2022/03/21 10:50:16;;;;;;;19.17;12.93;;;;;;;;;;5077137;28;20216;-78
2022/03/21 10:52:42;;;;;;;17.23;12.63;;;;;;;;;;5059248;28;20634;-78
2022/03/21 10:55:20;;;;;;;15.97;12.43;;;;;;;;;;5077083;28;20242;-79
2022/03/21 10:57:47;;;;;;;19.13;12.97;;;;;;;;;;5060526;28;20194;-79
2022/03/21 11:00:18;;;;;;;16.63;12.90;;;;;;;;;;5074028;28;20200;-79
2022/03/21 11:02:51;;;;;;;15.33;12.63;;;;;;;;;;5070635;28;20213;-78
2022/03/21 11:05:18;;;;;;;16.47;13.00;;;;;;;;;;5068785;28;20192;-80
2022/03/21 11:07:46;;;;;;;16.93;11.80;;;;;;;;;;5068401;28;20720;-80
2022/03/21 11:10:12;;;;;;;14.40;11.13;;;;;;;;;;5071955;28;20209;-81
2022/03/21 11:12:42;;;;;;;14.97;12.10;;;;;;;;;;5073328;28;20205;-81
2022/03/21 11:15:09;;;;;;;15.83;11.20;;;;;;;;;;5076854;28;20169;-81
2022/03/21 11:17:36;;;;;;;16.00;12.37;;;;;;;;;;5061259;28;20189;-80
2022/03/21 11:20:03;;;;;;;16.97;13.00;;;;;;;;;;5078264;28;20181;-81
2022/03/21 11:22:29;;;;;;;17.10;13.00;;;;;;;;;;5073014;28;20216;-81
2022/03/21 11:25:05;;;;;;;17.33;12.70;;;;;;;;;;5072617;28;20177;-82
2022/03/21 11:27:47;;;;;;;15.60;12.03;;;;;;;;;;5072959;28;20194;-82
2022/03/21 11:30:17;;;;;;;16.57;12.77;;;;;;;;;;5071792;28;20628;-82
2022/03/21 11:32:59;;;;;;;13.83;12.17;;;;;;;;;;5072317;28;20209;-82
2022/03/21 11:35:28;;;;;;;13.97;11.37;;;;;;;;;;5074930;28;20178;-83
2022/03/21 11:37:55;;;;;;;15.40;12.47;;;;;;;;;;5053702;28;20175;-83
2022/03/21 11:40:32;;;;;;;19.10;12.80;;;;;;;;;;5066385;28;20587;-81
2022/03/21 11:43:17;;;;;;;15.47;12.10;;;;;;;;;;5070800;28;20199;-87
2022/03/21 11:45:47;;;;;;;14.53;10.93;;;;;;;;;;5056563;28;20552;-80
2022/03/21 11:48:22;;;;;;;13.67;11.40;;;;;;;;;;5071943;28;20688;-79
2022/03/21 11:50:50;;;;;;;13.17;10.83;;;;;;;;;;5066155;28;20210;-80
2022/03/21 11:53:17;;;;;;;14.00;10.77;;;;;;;;;;5064607;28;20575;-76
2022/03/21 11:55:44;;;;;;;13.53;11.77;;;;;;;;;;5068596;28;20204;-77
2022/03/21 11:58:22;;;;;;;16.70;12.30;;;;;;;;;;5068931;28;20243;-75
2022/03/21 12:01:07;;;;;;;13.47;11.60;;;;;;;;;;5063395;28;20208;-74
2022/03/21 12:03:34;;;;;;;15.17;12.07;;;;;;;;;;5061330;28;20602;-74
2022/03/21 12:06:19;;;;;;;14.73;11.03;;;;;;;;;;5062218;28;20276;-75
2022/03/21 12:08:48;;;;;;;14.87;12.23;;;;;;;;;;5060086;28;20660;-74
2022/03/21 12:11:36;;;;;;;14.20;11.70;;;;;;;;;;5062876;28;20182;-75
2022/03/21 12:14:25;;;;;;;15.17;11.40;;;;;;;;;;5064023;28;20181;-75
2022/03/21 12:17:03;;;;;;;13.97;11.57;;;;;;;;;;5066346;28;20185;-75
2022/03/21 12:19:48;;;;;;;14.27;12.07;;;;;;;;;;5066060;28;20189;-74
2022/03/21 12:22:29;;;;;;;15.27;11.80;;;;;;;;;;5061722;28;20270;-74
2022/03/21 12:24:59;;;;;;;15.20;12.67;;;;;;;;;;5066578;28;20325;-74
2022/03/21 12:27:46;;;;;;;14.90;12.07;;;;;;;;;;5067665;28;20197;-74
2022/03/21 12:30:26;;;;;;;13.70;12.20;;;;;;;;;;5067610;28;20571;-73
2022/03/21 12:33:06;;;;;;;13.03;11.63;;;;;;;;;;5068110;28;20197;-73
2022/03/21 12:35:51;;;;;;;17.70;12.57;;;;;;;;;;5069211;28;20192;-74
2022/03/21 12:38:23;;;;;;;15.17;12.20;;;;;;;;;;5067225;28;20181;-76
2022/03/21 12:40:52;;;;;;;13.50;11.60;;;;;;;;;;5066925;28;20185;-75
2022/03/21 12:43:18;;;;;;;13.13;11.73;;;;;;;;;;5067664;28;20212;-76
2022/03/21 12:45:45;;;;;;;15.20;12.60;;;;;;;;;;5066484;28;20213;-77
2022/03/21 12:48:14;;;;;;;17.00;12.13;;;;;;;;;;5064528;28;20224;-75
2022/03/21 12:50:40;;;;;;;13.83;11.43;;;;;;;;;;5066123;28;20729;-75
2022/03/21 12:53:07;;;;;;;14.13;11.50;;;;;;;;;;5068310;28;20628;-75
2022/03/21 12:55:34;;;;;;;14.17;12.33;;;;;;;;;;5067425;28;20188;-76
2022/03/21 12:58:02;;;;;;;13.80;11.90;;;;;;;;;;5070011;28;20188;-77
2022/03/21 13:00:31;;;;;;;13.73;11.37;;;;;;;;;;5061131;28;20806;-78
2022/03/21 13:03:03;;;;;;;13.07;10.53;;;;;;;;;;5054611;28;20216;-77
2022/03/21 13:11:05;;;;;;;14.27;12.23;;;;;;;;;;5065594;28;20247;-76
2022/03/21 13:13:44;;;;;;;17.40;12.53;;;;;;;;;;5067580;28;20217;-78
2022/03/21 13:16:10;;;;;;;16.60;12.57;;;;;;;;;;5069108;28;20173;-77
2022/03/21 13:18:37;;;;;;;14.63;12.40;;;;;;;;;;5064573;28;20185;-76
2022/03/21 13:21:04;;;;;;;15.53;12.10;;;;;;;;;;5068210;28;20189;-77
2022/03/21 13:23:30;;;;;;;13.90;11.90;;;;;;;;;;5071295;28;20185;-76
2022/03/21 13:26:10;;;;;;;14.07;11.97;;;;;;;;;;5065248;28;20181;-77
2022/03/21 13:28:38;;;;;;;13.27;11.87;;;;;;;;;;5066190;28;20496;-75
2022/03/21 13:31:09;;;;;;;14.73;12.10;;;;;;;;;;5068589;28;20208;-76
2022/03/21 13:33:36;;;;;;;16.33;12.83;;;;;;;;;;5067900;28;20252;-76
2022/03/21 13:36:07;;;;;;;18.50;13.50;;;;;;;;;;5079009;28;20181;-77
2022/03/21 13:38:34;;;;;;;16.90;12.93;;;;;;;;;;5087255;28;20597;-76
2022/03/21 13:41:02;;;;;;;14.77;11.83;;;;;;;;;;5077813;28;20181;-76
2022/03/21 13:43:29;;;;;;;13.83;11.53;;;;;;;;;;5067681;28;20193;-76
2022/03/21 13:45:56;;;;;;;13.80;11.60;;;;;;;;;;5068244;28;20828;-76
2022/03/21 13:48:35;;;;;;;14.53;11.87;;;;;;;;;;5064983;28;20275;-75
2022/03/21 13:51:02;;;;;;;14.80;11.90;;;;;;;;;;5060404;28;20741;-75
2022/03/21 13:53:29;;;;;;;15.50;12.43;;;;;;;;;;5065158;28;20181;-77
2022/03/21 13:55:56;;;;;;;14.20;11.70;;;;;;;;;;5058245;28;20248;-78
2022/03/21 13:58:27;;;;;;;14.03;12.53;;;;;;;;;;5058180;28;20609;-77
2022/03/21 14:00:53;;;;;;;15.97;11.87;;;;;;;;;;5065652;28;20264;-76
2022/03/21 14:03:32;;;;;;;17.87;12.97;;;;;;;;;;5062427;28;20208;-77
2022/03/21 14:05:59;;;;;;;16.53;13.10;;;;;;;;;;5073450;28;20554;-77
2022/03/21 14:08:26;;;;;;;14.03;12.33;;;;;;;;;;5069279;28;20193;-76
2022/03/21 14:10:53;;;;;;;15.00;12.50;;;;;;;;;;5071265;28;20706;-76
2022/03/21 14:13:24;;;;;;;14.77;12.40;;;;;;;;;;5073128;28;20220;-76
2022/03/21 14:15:51;;;;;;;16.23;12.07;;;;;;;;;;5086776;28;20832;-76
2022/03/21 14:18:18;;;;;;;14.33;11.87;;;;;;;;;;5070270;28;20326;-75
2022/03/21 14:20:45;;;;;;;14.53;11.93;;;;;;;;;;5067608;28;20673;-75
2022/03/21 14:23:11;;;;;;;13.97;11.53;;;;;;;;;;5065868;28;20213;-75
2022/03/21 14:28:22;;;;;;;16.63;12.77;;;;;;;;;;5067910;28;20233;-75
2022/03/21 14:30:49;;;;;;;13.67;12.10;;;;;;;;;;5064603;28;20295;-75
2022/03/21 14:33:15;;;;;;;15.73;12.60;;;;;;;;;;5071365;28;20209;-79
2022/03/21 14:35:42;;;;;;;14.53;12.97;;;;;;;;;;5069985;28;20181;-76
2022/03/21 14:38:08;;;;;;;14.27;12.10;;;;;;;;;;5068398;28;20660;-78
2022/03/21 14:40:37;;;;;;;16.93;13.27;;;;;;;;;;5062516;28;20266;-78
2022/03/21 14:43:07;;;;;;;14.03;12.53;;;;;;;;;;5067468;28;20254;-78
2022/03/21 14:45:34;;;;;;;13.90;11.57;;;;;;;;;;5069075;28;20192;-77
2022/03/21 14:48:01;;;;;;;15.53;12.43;;;;;;;;;;5068818;28;20189;-78
2022/03/21 14:50:27;;;;;;;14.20;12.53;;;;;;;;;;5072294;28;20206;-76
2022/03/21 14:53:02;;;;;;;14.87;12.73;;;;;;;;;;5069365;28;20193;-77
2022/03/21 14:55:28;;;;;;;13.03;11.63;;;;;;;;;;5073472;28;20270;-77